createdAt,value
2022-07-31T00:03:22.594Z,58.80
2022-07-31T00:08:26.455Z,58.10
2022-07-31T00:13:57.404Z,58.20
2022-07-31T00:18:51.178Z,58.20
2022-07-31T00:23:55.104Z,58.30
2022-07-31T00:28:57.502Z,58.80
2022-07-31T00:33:59.903Z,59.00
2022-07-31T00:39:03.919Z,58.90
2022-07-31T00:44:07.562Z,59.00
2022-07-31T00:49:14.853Z,58.90
2022-07-31T00:54:22.623Z,59.10
2022-07-31T00:59:25.572Z,59.40
2022-07-31T01:04:28.004Z,59.20
2022-07-31T01:09:35.157Z,59.40
2022-07-31T01:14:41.014Z,59.70
2022-07-31T01:19:45.801Z,59.60
2022-07-31T01:25:00.825Z,59.50
2022-07-31T01:30:05.979Z,59.90
2022-07-31T01:35:16.680Z,59.70
2022-07-31T01:40:26.364Z,60.00
2022-07-31T01:45:32.868Z,59.70
2022-07-31T01:50:43.236Z,59.70
2022-07-31T01:56:02.772Z,59.40
2022-07-31T02:01:09.323Z,59.70
2022-07-31T02:06:16.311Z,59.80
2022-07-31T02:11:19.880Z,59.80
2022-07-31T02:16:25.136Z,59.90
2022-07-31T02:21:27.516Z,60.20
2022-07-31T02:26:32.208Z,60.10
2022-07-31T02:31:37.774Z,60.40
2022-07-31T02:36:41.441Z,60.70
2022-07-31T02:41:44.899Z,60.70
2022-07-31T02:46:49.389Z,60.90
2022-07-31T02:51:52.496Z,61.20
2022-07-31T02:56:55.809Z,61.10
2022-07-31T03:01:59.815Z,61.00
2022-07-31T03:07:02.550Z,61.00
2022-07-31T03:12:06.075Z,60.80
2022-07-31T03:17:11.265Z,60.70
2022-07-31T03:22:15.536Z,60.80
2022-07-31T03:27:18.185Z,60.80
2022-07-31T03:32:22.243Z,60.90
2022-07-31T03:37:24.561Z,61.20
2022-07-31T03:42:28.639Z,61.10
2022-07-31T03:47:32.659Z,61.50
2022-07-31T03:52:36.221Z,61.70
2022-07-31T03:57:39.083Z,61.80
2022-07-31T04:02:44.660Z,61.80
2022-07-31T04:07:47.258Z,62.10
2022-07-31T04:12:49.685Z,62.40
2022-07-31T04:17:54.389Z,63.00
2022-07-31T04:22:56.753Z,63.40
2022-07-31T04:28:01.161Z,63.10
2022-07-31T04:33:05.132Z,63.20
2022-07-31T04:38:07.670Z,63.70
2022-07-31T04:43:10.086Z,63.40
2022-07-31T04:48:13.970Z,63.40
2022-07-31T04:53:16.319Z,63.70
2022-07-31T04:58:18.770Z,63.60
2022-07-31T05:03:22.571Z,64.20
2022-07-31T05:08:24.942Z,64.50
2022-07-31T05:13:27.270Z,64.10
2022-07-31T05:18:31.119Z,64.00
2022-07-31T05:23:33.489Z,64.70
2022-07-31T05:28:36.151Z,63.30
2022-07-31T05:33:40.142Z,63.10
2022-07-31T05:38:42.963Z,62.70
2022-07-31T05:43:45.482Z,62.40
2022-07-31T05:48:49.448Z,62.00
2022-07-31T05:53:54.786Z,62.00
2022-07-31T05:58:57.086Z,61.40
2022-07-31T06:04:00.971Z,61.40
2022-07-31T06:09:04.757Z,61.20
2022-07-31T06:14:07.611Z,61.00
2022-07-31T06:19:11.574Z,60.60
2022-07-31T06:24:13.985Z,60.40
2022-07-31T06:29:16.505Z,60.20
2022-07-31T06:34:20.624Z,60.10
2022-07-31T06:39:23.039Z,60.40
2022-07-31T06:44:32.246Z,60.30
2022-07-31T06:49:36.171Z,60.40
2022-07-31T06:54:38.782Z,60.40
2022-07-31T06:59:41.290Z,60.40
2022-07-31T07:05:05.093Z,60.40
2022-07-31T07:10:07.763Z,60.30
2022-07-31T07:15:10.835Z,60.50
2022-07-31T07:20:14.750Z,60.60
2022-07-31T07:25:17.433Z,60.50
2022-07-31T07:30:20.200Z,60.30
2022-07-31T07:35:24.038Z,59.80
2022-07-31T07:40:27.405Z,59.30
2022-07-31T07:45:29.865Z,58.90
2022-07-31T07:50:34.241Z,58.50
2022-07-31T07:55:37.558Z,57.90
2022-07-31T08:00:41.151Z,58.00
2022-07-31T08:05:45.237Z,57.80
2022-07-31T08:10:47.676Z,57.30
2022-07-31T08:15:50.096Z,56.80
2022-07-31T08:20:54.076Z,55.80
2022-07-31T08:25:56.569Z,54.50
2022-07-31T08:31:01.395Z,53.40
2022-07-31T08:36:05.996Z,53.00
2022-07-31T08:41:08.382Z,52.90
2022-07-31T08:46:12.797Z,53.10
2022-07-31T08:51:17.877Z,52.80
2022-07-31T08:56:21.201Z,51.70
2022-07-31T09:01:23.867Z,50.60
2022-07-31T09:06:27.876Z,50.90
2022-07-31T09:11:30.508Z,50.70
2022-07-31T09:16:45.136Z,50.60
2022-07-31T09:21:49.209Z,50.60
2022-07-31T09:26:54.156Z,51.20
2022-07-31T09:32:08.377Z,51.30
2022-07-31T09:37:14.843Z,50.60
2022-07-31T09:42:17.314Z,50.30
2022-07-31T09:47:24.775Z,51.30
2022-07-31T09:52:30.189Z,50.30
2022-07-31T09:57:33.036Z,50.30
2022-07-31T10:02:38.667Z,50.80
2022-07-31T10:07:43.928Z,50.90
2022-07-31T10:12:51.253Z,50.60
2022-07-31T10:17:55.471Z,49.50
2022-07-31T10:23:09.710Z,48.90
2022-07-31T10:28:13.071Z,48.70
2022-07-31T10:33:42.046Z,49.60
2022-07-31T10:38:48.223Z,50.10
2022-07-31T10:43:55.133Z,50.70
2022-07-31T10:48:57.837Z,51.10
2022-07-31T10:54:04.361Z,52.40
2022-07-31T10:59:10.958Z,52.90
2022-07-31T11:04:27.467Z,53.10
2022-07-31T11:09:31.566Z,53.40
2022-07-31T11:14:35.750Z,53.60
2022-07-31T11:19:41.103Z,54.10
2022-07-31T11:24:54.091Z,54.50
2022-07-31T11:30:09.068Z,55.50
2022-07-31T11:35:26.030Z,55.60
2022-07-31T11:40:30.241Z,56.10
2022-07-31T11:45:51.951Z,56.30
2022-07-31T11:50:57.591Z,57.50
2022-07-31T11:56:03.109Z,57.90
2022-07-31T12:01:05.791Z,57.50
2022-07-31T12:06:10.689Z,57.80
2022-07-31T12:11:17.544Z,58.30
2022-07-31T12:16:19.697Z,58.40
2022-07-31T12:21:31.225Z,57.40
2022-07-31T12:26:35.445Z,58.70
2022-07-31T12:31:45.565Z,59.00
2022-07-31T12:36:58.644Z,59.50
2022-07-31T12:42:02.544Z,60.10
2022-07-31T12:47:06.660Z,60.10
2022-07-31T12:52:09.947Z,60.40
2022-07-31T12:57:14.257Z,60.70
2022-07-31T13:02:22.485Z,60.80
2022-07-31T13:07:26.306Z,61.50
2022-07-31T13:12:30.425Z,62.00
2022-07-31T13:17:39.880Z,63.30
2022-07-31T13:22:45.024Z,64.20
2022-07-31T13:27:49.145Z,63.70
2022-07-31T13:32:51.636Z,63.90
2022-07-31T13:37:54.295Z,64.10
2022-07-31T13:42:58.316Z,64.40
2022-07-31T13:48:03.331Z,65.40
2022-07-31T13:53:12.050Z,65.90
2022-07-31T13:58:16.315Z,66.30
2022-07-31T14:03:21.338Z,66.50
2022-07-31T14:08:29.736Z,66.60
2022-07-31T14:13:42.490Z,67.50
2022-07-31T14:18:45.610Z,68.00
2022-07-31T14:23:50.328Z,68.80
2022-07-31T14:28:56.772Z,69.20
2022-07-31T14:34:01.830Z,70.40
2022-07-31T14:39:05.715Z,70.30
2022-07-31T14:44:10.396Z,71.20
2022-07-31T14:49:14.091Z,71.80
2022-07-31T14:54:17.196Z,72.10
2022-07-31T14:59:22.076Z,73.60
2022-07-31T15:04:25.447Z,73.40
2022-07-31T15:09:28.879Z,75.10
2022-07-31T15:14:34.045Z,74.40
2022-07-31T15:19:37.039Z,74.80
2022-07-31T15:24:49.105Z,74.90
2022-07-31T15:30:04.983Z,75.20
2022-07-31T15:35:12.637Z,75.80
2022-07-31T15:40:16.275Z,76.40
2022-07-31T15:45:21.051Z,76.20
2022-07-31T15:50:23.884Z,76.60
2022-07-31T15:55:26.776Z,76.60
2022-07-31T16:00:30.725Z,77.10
2022-07-31T16:05:36.731Z,77.10
2022-07-31T16:10:41.526Z,77.80
2022-07-31T16:15:45.444Z,77.10
2022-07-31T16:20:48.164Z,77.80
2022-07-31T16:25:50.965Z,77.90
2022-07-31T16:30:54.843Z,77.60
2022-07-31T16:35:57.306Z,77.70
2022-07-31T16:40:59.765Z,77.20
2022-07-31T16:46:03.803Z,77.40
2022-07-31T16:51:06.404Z,77.80
2022-07-31T16:56:08.744Z,77.70
2022-07-31T17:01:54.020Z,77.30
2022-07-31T17:06:38.908Z,77.30
2022-07-31T17:11:41.706Z,77.40
2022-07-31T17:16:50.505Z,77.30
2022-07-31T17:21:53.605Z,77.60
2022-07-31T17:26:56.204Z,77.00
2022-07-31T17:32:00.330Z,76.40
2022-07-31T17:37:03.514Z,76.50
2022-07-31T17:42:06.863Z,76.50
2022-07-31T17:47:15.431Z,76.50
2022-07-31T17:52:18.204Z,76.70
2022-07-31T17:57:20.884Z,76.40
2022-07-31T18:02:28.353Z,76.50
2022-07-31T18:07:31.162Z,76.60
2022-07-31T18:12:56.943Z,76.60
2022-07-31T18:17:57.903Z,76.80
2022-07-31T18:23:00.504Z,77.00
2022-07-31T18:28:03.075Z,77.00
2022-07-31T18:33:07.456Z,77.00
2022-07-31T18:38:10.244Z,77.30
2022-07-31T18:43:12.876Z,77.10
2022-07-31T18:48:17.144Z,77.00
2022-07-31T18:53:21.182Z,77.20
2022-07-31T18:58:24.279Z,77.20
2022-07-31T19:03:28.795Z,77.40
2022-07-31T19:08:31.477Z,77.60
2022-07-31T19:13:36.247Z,77.30
2022-07-31T19:18:43.955Z,77.50
2022-07-31T19:23:47.404Z,77.70
2022-07-31T19:28:50.163Z,77.40
2022-07-31T19:33:54.482Z,77.40
2022-07-31T19:38:57.814Z,77.80
2022-07-31T19:44:00.883Z,77.70
2022-07-31T19:49:05.478Z,77.90
2022-07-31T19:54:08.816Z,78.20
2022-07-31T19:59:11.824Z,78.10
2022-07-31T20:04:16.136Z,78.20
2022-07-31T20:09:19.123Z,78.30
2022-07-31T20:14:21.649Z,78.00
2022-07-31T20:19:25.696Z,78.10
2022-07-31T20:24:28.418Z,78.20
2022-07-31T20:29:31.603Z,78.10
2022-07-31T20:34:36.175Z,78.20
2022-07-31T20:39:38.843Z,78.40
2022-07-31T20:44:41.383Z,78.30
2022-07-31T20:49:45.692Z,78.50
2022-07-31T20:54:48.262Z,78.90
2022-07-31T20:59:50.882Z,79.00
2022-07-31T21:04:54.982Z,79.10
2022-07-31T21:09:58.495Z,79.20
2022-07-31T21:15:02.062Z,79.10
2022-07-31T21:20:07.575Z,79.10
2022-07-31T21:25:11.033Z,79.30
2022-07-31T21:30:14.304Z,79.30
2022-07-31T21:35:21.811Z,79.10
2022-07-31T21:40:40.499Z,79.40
2022-07-31T21:45:50.631Z,79.20
2022-07-31T21:51:01.194Z,79.40
2022-07-31T21:56:04.175Z,79.70
2022-07-31T22:01:06.850Z,79.60
2022-07-31T22:06:11.522Z,79.60
2022-07-31T22:11:14.298Z,79.80
2022-07-31T22:16:16.763Z,79.70
2022-07-31T22:21:22.536Z,79.80
2022-07-31T22:26:25.953Z,80.00
2022-07-31T22:31:28.783Z,79.90
2022-07-31T22:36:34.456Z,80.00
2022-07-31T22:41:37.004Z,80.40
2022-07-31T22:46:39.592Z,80.30
2022-07-31T22:51:46.500Z,80.20
2022-07-31T22:56:49.449Z,80.30
2022-07-31T23:01:52.144Z,80.30
2022-07-31T23:06:56.292Z,80.20
2022-07-31T23:11:59.380Z,80.40
2022-07-31T23:17:01.794Z,80.20
2022-07-31T23:22:05.996Z,80.40
2022-07-31T23:27:08.678Z,80.70
2022-07-31T23:32:11.109Z,80.60
2022-07-31T23:37:14.955Z,80.50
2022-07-31T23:42:17.417Z,80.60
2022-07-31T23:47:19.795Z,80.50
2022-07-31T23:52:25.043Z,80.30
2022-07-31T23:57:27.454Z,80.50
